Time;durP1;ratioP1;P1;durP2;ratioP2;P2;SDS_P1;SDS_P2;PMS_P1;PMS_P2;Temp;Humidity;BMP_temperature;BMP_pressure;BME280_temperature;BME280_humidity;BME280_pressure;Samples;Min_cycle;Max_cycle;Signal;HPM_P1;HPM_P2
2022/12/24 00:01:46;;;;;;;16.83;14.98;;;7.10;99.90;;;;;;5018543;28;90602;-35
2022/12/24 00:04:12;;;;;;;19.70;17.17;;;7.10;99.90;;;;;;5020003;28;89983;-33
2022/12/24 00:06:37;;;;;;;20.38;15.55;;;7.10;99.90;;;;;;5018483;28;90159;-32
2022/12/24 00:09:03;;;;;;;31.85;18.85;;;7.10;99.90;;;;;;5019009;27;88692;-34
2022/12/24 00:11:29;;;;;;;18.98;16.60;;;7.10;99.90;;;;;;5018810;27;89431;-34
2022/12/24 00:13:54;;;;;;;18.17;13.93;;;7.10;99.90;;;;;;5018904;28;89009;-35
2022/12/24 00:16:20;;;;;;;18.73;15.68;;;7.10;99.90;;;;;;5018947;28;90669;-32
2022/12/24 00:18:45;;;;;;;24.10;15.55;;;7.10;99.90;;;;;;5018824;28;90323;-33
2022/12/24 00:21:11;;;;;;;22.92;18.08;;;7.10;99.90;;;;;;5019683;28;89595;-32
2022/12/24 00:23:37;;;;;;;24.08;17.92;;;7.10;99.90;;;;;;5016700;28;90987;-32
2022/12/24 00:26:02;;;;;;;23.90;18.67;;;7.10;99.90;;;;;;5018669;28;90359;-32
2022/12/24 00:28:28;;;;;;;22.23;17.85;;;7.10;99.90;;;;;;5018568;28;90131;-34
2022/12/24 00:30:54;;;;;;;23.40;19.13;;;7.10;99.90;;;;;;5017902;28;89980;-33
2022/12/24 00:33:21;;;;;;;27.55;19.58;;;7.10;99.90;;;;;;5019646;27;88592;-32
2022/12/24 00:35:49;;;;;;;30.50;18.55;;;7.10;99.90;;;;;;5017809;27;89891;-34
2022/12/24 00:38:15;;;;;;;25.33;20.13;;;7.10;99.90;;;;;;5018106;27;89686;-34
2022/12/24 00:40:40;;;;;;;27.38;19.85;;;7.20;99.90;;;;;;5018693;28;89187;-32
2022/12/24 00:43:06;;;;;;;32.88;18.83;;;7.20;99.90;;;;;;5018603;28;88863;-32
2022/12/24 00:45:32;;;;;;;30.33;21.23;;;7.20;99.90;;;;;;5018837;28;91217;-33
2022/12/24 00:47:57;;;;;;;29.05;20.90;;;7.20;99.90;;;;;;5017838;28;90842;-32
2022/12/24 00:50:23;;;;;;;39.67;24.50;;;7.30;99.90;;;;;;5018058;28;91003;-34
2022/12/24 00:52:49;;;;;;;29.48;22.20;;;7.30;99.90;;;;;;5019141;28;90240;-32
2022/12/24 00:55:14;;;;;;;33.42;22.05;;;7.30;99.90;;;;;;5017980;27;90596;-31
2022/12/24 00:57:40;;;;;;;29.88;23.83;;;7.40;99.90;;;;;;5018745;28;90837;-32
2022/12/24 01:00:07;;;;;;;32.70;23.45;;;7.40;99.90;;;;;;5018322;28;89459;-33
2022/12/24 01:02:33;;;;;;;40.67;23.53;;;7.50;99.90;;;;;;5017922;27;89138;-33
2022/12/24 01:05:11;;;;;;;34.75;22.55;;;7.50;99.90;;;;;;5018638;28;90608;-34
2022/12/24 01:07:39;;;;;;;32.97;24.80;;;7.50;99.90;;;;;;5018676;28;89724;-31
2022/12/24 01:10:06;;;;;;;39.20;25.27;;;7.60;99.90;;;;;;5017915;27;88979;-32
2022/12/24 01:12:32;;;;;;;46.78;25.00;;;7.60;99.90;;;;;;5016863;28;88993;-33
2022/12/24 01:14:57;;;;;;;34.15;23.30;;;7.60;99.90;;;;;;5017856;28;90441;-33
2022/12/24 01:17:23;;;;;;;42.45;28.15;;;7.60;99.90;;;;;;5017798;28;89458;-35
2022/12/24 01:19:49;;;;;;;34.13;26.00;;;7.70;99.90;;;;;;5019037;27;89614;-31
2022/12/24 01:22:15;;;;;;;32.92;25.17;;;7.80;99.90;;;;;;5021541;28;89124;-34
2022/12/24 01:24:41;;;;;;;38.92;22.73;;;7.80;99.90;;;;;;5021119;28;90534;-35
2022/12/24 01:27:06;;;;;;;38.15;26.98;;;7.90;99.90;;;;;;5022107;27;90144;-34
2022/12/24 01:29:32;;;;;;;44.00;28.20;;;7.90;99.90;;;;;;5021524;27;89528;-34
2022/12/24 01:31:58;;;;;;;42.83;28.27;;;7.90;99.90;;;;;;5021829;28;88168;-33
2022/12/24 01:34:23;;;;;;;42.88;28.17;;;7.90;99.90;;;;;;5019534;28;91329;-34
2022/12/24 01:36:49;;;;;;;45.53;29.80;;;8.00;99.90;;;;;;5021039;28;90869;-32
2022/12/24 01:39:15;;;;;;;35.50;27.13;;;8.10;99.90;;;;;;5021690;28;91892;-35
2022/12/24 01:44:33;;;;;;;38.47;26.15;;;8.20;99.90;;;;;;5021792;27;90321;-33
2022/12/24 01:47:11;;;;;;;39.38;26.50;;;8.20;99.90;;;;;;5021258;27;89768;-33
2022/12/24 01:49:40;;;;;;;38.05;26.67;;;8.30;99.90;;;;;;5020414;27;88576;-33
2022/12/24 01:52:10;;;;;;;35.72;24.60;;;8.20;99.90;;;;;;5021509;27;89359;-35
2022/12/24 01:54:46;;;;;;;35.33;26.30;;;8.20;99.90;;;;;;5021005;27;90189;-35
2022/12/24 01:57:29;;;;;;;29.42;22.52;;;8.30;99.90;;;;;;5021203;28;89753;-33
2022/12/24 01:59:59;;;;;;;37.03;21.40;;;8.30;99.90;;;;;;5020484;28;89646;-33
2022/12/24 02:02:26;;;;;;;31.20;22.63;;;8.30;99.90;;;;;;5020311;27;89989;-33
2022/12/24 02:04:57;;;;;;;30.73;22.90;;;8.30;99.90;;;;;;5021329;27;90247;-35
2022/12/24 02:07:24;;;;;;;31.05;23.73;;;8.40;99.90;;;;;;5020711;27;89747;-36
2022/12/24 02:09:54;;;;;;;29.40;20.20;;;8.40;99.90;;;;;;5021417;27;89890;-33
2022/12/24 02:12:20;;;;;;;29.23;21.88;;;8.40;99.90;;;;;;5021310;27;88548;-32
2022/12/24 02:14:46;;;;;;;27.45;19.75;;;8.40;99.90;;;;;;5020468;28;90013;-34
2022/12/24 02:17:23;;;;;;;27.83;19.80;;;8.40;99.90;;;;;;5020807;28;89222;-35
2022/12/24 02:20:17;;;;;;;25.83;19.07;;;8.50;99.90;;;;;;5021175;28;89476;-35
2022/12/24 02:22:57;;;;;;;18.45;16.40;;;8.50;99.90;;;;;;5020452;27;87988;-34
2022/12/24 02:25:38;;;;;;;26.08;16.25;;;8.50;99.90;;;;;;5020851;28;90345;-33
2022/12/24 02:28:28;;;;;;;23.83;16.65;;;8.60;99.90;;;;;;5020604;27;90711;-33
2022/12/24 02:31:01;;;;;;;33.45;16.35;;;8.60;99.90;;;;;;5008779;28;90660;-34
2022/12/24 02:33:41;;;;;;;19.20;14.75;;;8.50;99.90;;;;;;5019163;28;89225;-33
2022/12/24 02:36:24;;;;;;;19.60;14.73;;;8.50;99.90;;;;;;5020211;27;90400;-33
2022/12/24 02:39:02;;;;;;;20.15;14.07;;;8.60;99.90;;;;;;5020345;27;89326;-33
2022/12/24 02:44:29;;;;;;;18.60;13.43;;;8.60;99.90;;;;;;5020632;27;89149;-35
2022/12/24 02:46:58;;;;;;;20.33;12.20;;;8.60;99.90;;;;;;5020521;28;91034;-33
2022/12/24 02:49:23;;;;;;;19.85;12.77;;;8.60;99.90;;;;;;5020753;28;90045;-35
2022/12/24 02:51:49;;;;;;;16.38;12.02;;;8.60;99.90;;;;;;5020234;27;89565;-33
2022/12/24 02:54:15;;;;;;;15.32;12.25;;;8.60;99.90;;;;;;5020076;28;91074;-33
2022/12/24 02:56:52;;;;;;;10.70;9.38;;;8.60;99.90;;;;;;5020235;28;90368;-32
2022/12/24 02:59:55;;;;;;;13.02;9.50;;;8.60;99.90;;;;;;5020999;28;90185;-32
2022/12/24 03:02:44;;;;;;;16.77;11.10;;;8.60;99.90;;;;;;5020658;28;89525;-32
2022/12/24 03:05:21;;;;;;;18.33;10.30;;;8.60;99.90;;;;;;5020738;28;88698;-33
2022/12/24 03:08:01;;;;;;;28.20;9.05;;;8.60;99.90;;;;;;5019950;28;90215;-33
2022/12/24 03:10:51;;;;;;;30.30;9.10;;;8.60;99.90;;;;;;5021172;27;90374;-34
2022/12/24 03:13:19;;;;;;;28.25;9.13;;;8.60;99.90;;;;;;5007592;28;89765;-33
2022/12/24 03:15:46;;;;;;;29.98;8.68;;;8.60;99.90;;;;;;5020935;27;89108;-34
2022/12/24 03:18:17;;;;;;;36.13;9.85;;;8.60;99.90;;;;;;5020711;27;90837;-32
2022/12/24 03:20:56;;;;;;;30.23;8.68;;;8.70;99.90;;;;;;5020463;27;90659;-35
2022/12/24 03:23:21;;;;;;;38.53;9.98;;;8.60;99.90;;;;;;5021102;28;90611;-32
2022/12/24 03:25:48;;;;;;;39.67;8.98;;;8.60;99.90;;;;;;5019482;28;88752;-34
2022/12/24 03:28:16;;;;;;;30.80;8.57;;;8.70;99.90;;;;;;5020514;28;90171;-34
2022/12/24 03:30:44;;;;;;;26.98;7.88;;;8.70;99.90;;;;;;5020160;27;89366;-33
2022/12/24 03:33:11;;;;;;;28.67;8.38;;;8.70;99.90;;;;;;5020762;28;89905;-34
2022/12/24 03:35:37;;;;;;;35.75;9.45;;;8.70;99.90;;;;;;5019777;27;87612;-32
2022/12/24 03:38:03;;;;;;;39.35;8.55;;;8.60;99.90;;;;;;5020807;28;90684;-35
2022/12/24 03:40:29;;;;;;;24.20;7.80;;;8.60;99.90;;;;;;5019926;28;90033;-32
2022/12/24 03:42:54;;;;;;;28.63;8.10;;;8.60;99.90;;;;;;5019892;27;89776;-34
2022/12/24 03:45:20;;;;;;;29.40;8.30;;;8.50;99.90;;;;;;5020352;28;90049;-32
2022/12/24 03:47:46;;;;;;;26.42;7.55;;;8.60;99.90;;;;;;5019878;28;90140;-32
2022/12/24 03:50:11;;;;;;;34.03;7.38;;;8.60;99.90;;;;;;5019827;28;89860;-35
2022/12/24 03:52:37;;;;;;;23.52;7.20;;;8.50;99.90;;;;;;5019626;28;89826;-33
2022/12/24 03:55:03;;;;;;;30.42;8.48;;;8.50;99.90;;;;;;5020438;28;88917;-35
2022/12/24 03:57:29;;;;;;;24.88;6.68;;;8.40;99.90;;;;;;5020176;28;90246;-33
2022/12/24 03:59:54;;;;;;;25.73;7.85;;;8.50;99.90;;;;;;5019858;28;89653;-33
2022/12/24 04:02:20;;;;;;;33.60;6.85;;;8.50;99.90;;;;;;5019681;28;89600;-31
2022/12/24 04:04:45;;;;;;;28.52;7.07;;;8.50;99.90;;;;;;5019442;28;88390;-33
2022/12/24 04:07:11;;;;;;;34.92;7.68;;;8.40;99.90;;;;;;5019946;28;89981;-33
2022/12/24 04:09:37;;;;;;;32.83;8.05;;;8.40;99.90;;;;;;5019106;28;92899;-33
2022/12/24 04:12:03;;;;;;;27.67;8.15;;;8.50;99.90;;;;;;5019803;28;90079;-33
2022/12/24 04:14:29;;;;;;;26.20;7.30;;;8.60;99.90;;;;;;5018720;28;87698;-34
2022/12/24 04:16:55;;;;;;;29.05;8.90;;;8.60;99.90;;;;;;5019310;28;90280;-34
2022/12/24 04:19:20;;;;;;;26.52;8.00;;;8.60;99.90;;;;;;5019628;28;90386;-33
2022/12/24 04:21:46;;;;;;;17.02;6.63;;;8.60;99.90;;;;;;5019750;28;89100;-33
2022/12/24 04:24:12;;;;;;;25.67;7.60;;;8.60;99.90;;;;;;5019942;28;90284;-33
2022/12/24 04:26:37;;;;;;;32.88;7.80;;;8.70;99.90;;;;;;5019225;28;90462;-33
2022/12/24 04:29:03;;;;;;;30.52;8.63;;;8.60;99.90;;;;;;5019382;28;90476;-33
2022/12/24 04:31:28;;;;;;;26.58;7.43;;;8.60;99.90;;;;;;5019008;28;89887;-33
2022/12/24 04:33:54;;;;;;;24.80;6.95;;;8.70;99.90;;;;;;5019062;28;89382;-32
2022/12/24 04:36:20;;;;;;;29.33;6.95;;;8.60;99.90;;;;;;5019457;28;90277;-32
2022/12/24 04:38:47;;;;;;;29.33;7.50;;;8.50;99.90;;;;;;5004909;28;89912;-33
2022/12/24 04:41:21;;;;;;;22.33;7.47;;;8.50;99.90;;;;;;5019185;27;90080;-33
2022/12/24 04:43:47;;;;;;;32.08;7.53;;;8.40;99.90;;;;;;5019897;27;89343;-35
2022/12/24 04:46:18;;;;;;;30.30;7.30;;;8.40;99.90;;;;;;5019000;27;92448;-36
2022/12/24 04:48:46;;;;;;;27.08;8.85;;;8.40;99.90;;;;;;5017388;28;90596;-33
2022/12/24 04:51:13;;;;;;;20.92;8.05;;;8.40;99.90;;;;;;5019253;27;89189;-34
2022/12/24 04:53:39;;;;;;;34.30;9.70;;;8.40;99.90;;;;;;5018913;27;88187;-35
2022/12/24 04:56:12;;;;;;;28.60;7.63;;;8.40;99.90;;;;;;5018815;28;89733;-33
2022/12/24 04:58:38;;;;;;;17.92;7.13;;;8.30;99.90;;;;;;5018552;27;90480;-33
2022/12/24 05:01:04;;;;;;;22.90;7.80;;;8.40;99.90;;;;;;5019317;28;91643;-33
2022/12/24 05:03:30;;;;;;;24.85;8.05;;;8.40;99.90;;;;;;5018728;27;88978;-32
2022/12/24 05:06:07;;;;;;;30.42;9.18;;;8.40;99.90;;;;;;5019367;28;89707;-35
2022/12/24 05:08:33;;;;;;;39.60;9.32;;;8.40;99.90;;;;;;5019067;28;90063;-32
2022/12/24 05:11:00;;;;;;;28.98;8.02;;;8.40;99.90;;;;;;5018395;27;89633;-35
2022/12/24 05:13:26;;;;;;;46.85;9.45;;;8.40;99.90;;;;;;5018936;27;89724;-36
2022/12/24 05:15:52;;;;;;;33.92;9.07;;;8.40;99.90;;;;;;5019351;28;89592;-33
2022/12/24 05:18:18;;;;;;;33.63;8.95;;;8.50;99.90;;;;;;5018467;28;89791;-32
2022/12/24 05:20:43;;;;;;;32.35;9.27;;;8.50;99.90;;;;;;5018854;27;88990;-34
2022/12/24 05:26:22;;;;;;;40.72;10.07;;;8.60;99.90;;;;;;5019131;28;90384;-34
2022/12/24 05:28:54;;;;;;;43.92;9.98;;;8.80;99.90;;;;;;5017817;27;89854;-33
2022/12/24 05:31:21;;;;;;;26.77;9.25;;;8.80;99.90;;;;;;5017293;27;89879;-32
2022/12/24 05:33:47;;;;;;;44.33;9.25;;;8.70;99.90;;;;;;5018114;27;89112;-35
2022/12/24 05:36:13;;;;;;;40.45;9.88;;;8.70;99.90;;;;;;5018128;27;90140;-32
2022/12/24 05:38:39;;;;;;;21.85;7.13;;;8.70;99.90;;;;;;5018418;28;89685;-35
2022/12/24 05:41:05;;;;;;;42.67;9.75;;;8.70;99.90;;;;;;5018571;28;90237;-31
2022/12/24 05:43:31;;;;;;;35.38;10.27;;;8.80;99.90;;;;;;5016630;28;88422;-33
2022/12/24 05:46:00;;;;;;;40.67;10.07;;;8.80;99.90;;;;;;5017386;27;91854;-32
2022/12/24 05:48:26;;;;;;;46.30;11.48;;;8.70;99.90;;;;;;5017421;28;92060;-32
2022/12/24 05:50:52;;;;;;;31.33;9.90;;;8.70;99.90;;;;;;5017525;28;90612;-32
2022/12/24 05:53:18;;;;;;;38.33;10.20;;;8.70;99.90;;;;;;5018874;28;87968;-33
2022/12/24 05:55:44;;;;;;;32.08;10.70;;;8.70;99.90;;;;;;5017168;27;90187;-36
2022/12/24 05:58:09;;;;;;;33.00;9.15;;;8.70;99.90;;;;;;5017661;28;88866;-36
2022/12/24 06:00:35;;;;;;;36.92;8.75;;;8.70;99.90;;;;;;5018287;28;89840;-34
2022/12/24 06:03:01;;;;;;;38.25;9.45;;;8.80;99.90;;;;;;5018453;28;88460;-37
2022/12/24 06:05:26;;;;;;;33.03;9.85;;;8.80;99.90;;;;;;5018189;28;90476;-32
2022/12/24 06:07:52;;;;;;;42.08;10.75;;;8.80;99.90;;;;;;5019316;27;89808;-32
2022/12/24 06:10:18;;;;;;;38.60;9.88;;;8.80;99.90;;;;;;5021015;28;89198;-34
2022/12/24 06:12:44;;;;;;;32.67;10.13;;;8.80;99.90;;;;;;5021086;27;88659;-33
2022/12/24 06:15:10;;;;;;;30.17;8.80;;;8.80;99.90;;;;;;5020640;27;90347;-34
2022/12/24 06:17:35;;;;;;;32.13;9.85;;;8.80;99.90;;;;;;5021412;27;89297;-33
2022/12/24 06:20:01;;;;;;;41.28;10.82;;;8.80;99.90;;;;;;5020280;28;89560;-32
2022/12/24 06:22:27;;;;;;;41.65;10.55;;;8.80;99.90;;;;;;5021216;28;89843;-35
2022/12/24 06:24:52;;;;;;;34.60;11.18;;;8.80;99.90;;;;;;5020266;28;89765;-35
2022/12/24 06:27:18;;;;;;;26.50;8.52;;;8.80;99.90;;;;;;5020716;28;89592;-33
2022/12/24 06:29:43;;;;;;;33.28;10.23;;;8.80;99.90;;;;;;5020793;28;89702;-32
2022/12/24 06:32:09;;;;;;;38.40;9.25;;;8.80;99.90;;;;;;5020077;28;89770;-35
2022/12/24 06:34:35;;;;;;;36.22;9.20;;;8.80;99.90;;;;;;5021474;28;89774;-34
2022/12/24 06:37:00;;;;;;;46.42;12.30;;;8.70;99.90;;;;;;5020042;28;90740;-33
2022/12/24 06:39:26;;;;;;;37.42;10.88;;;8.80;99.90;;;;;;5019577;28;92073;-33
2022/12/24 06:41:52;;;;;;;48.50;11.15;;;8.80;99.90;;;;;;5020340;28;88657;-33
2022/12/24 06:44:17;;;;;;;37.53;10.70;;;8.80;99.90;;;;;;5020031;28;90121;-33
2022/12/24 06:46:43;;;;;;;49.05;10.45;;;8.80;99.90;;;;;;5020243;28;90494;-33
2022/12/24 06:49:08;;;;;;;45.13;10.50;;;8.80;99.90;;;;;;5020360;28;89527;-34
2022/12/24 06:51:34;;;;;;;35.47;10.48;;;8.80;99.90;;;;;;5020491;27;88707;-34
2022/12/24 06:54:00;;;;;;;38.22;11.65;;;8.80;99.90;;;;;;5020025;28;90819;-33
2022/12/24 06:56:25;;;;;;;36.88;11.65;;;8.80;99.90;;;;;;5020009;28;90028;-34
2022/12/24 06:58:51;;;;;;;30.10;11.52;;;8.90;99.90;;;;;;5020167;27;89729;-33
2022/12/24 07:01:18;;;;;;;41.85;10.82;;;8.80;99.90;;;;;;5020253;28;89956;-33
2022/12/24 07:03:44;;;;;;;34.60;10.32;;;8.80;99.90;;;;;;5020506;28;90230;-32
2022/12/24 07:06:29;;;;;;;40.50;10.27;;;8.80;99.90;;;;;;5019387;28;88186;-33
2022/12/24 07:08:55;;;;;;;47.65;12.40;;;8.80;99.90;;;;;;5020274;27;89578;-34
2022/12/24 07:11:23;;;;;;;37.08;10.00;;;8.80;99.90;;;;;;5020667;28;89855;-31
2022/12/24 07:13:49;;;;;;;44.00;11.57;;;8.80;99.90;;;;;;5019655;27;91797;-38
2022/12/24 07:16:15;;;;;;;30.92;8.48;;;8.80;99.90;;;;;;5018506;28;90065;-33
2022/12/24 07:18:41;;;;;;;37.95;10.10;;;8.80;99.90;;;;;;5020503;27;89032;-32
2022/12/24 07:21:06;;;;;;;32.80;9.55;;;8.70;99.90;;;;;;5019600;27;88910;-33
2022/12/24 07:23:33;;;;;;;35.45;8.95;;;8.70;99.90;;;;;;5019456;28;89352;-34
2022/12/24 07:26:01;;;;;;;35.67;8.13;;;8.80;99.90;;;;;;5020340;28;90435;-34
2022/12/24 07:28:27;;;;;;;34.50;9.60;;;8.70;99.90;;;;;;5020414;28;90712;-34
2022/12/24 07:30:53;;;;;;;34.90;9.95;;;8.70;99.90;;;;;;5020574;27;89732;-35
2022/12/24 07:33:18;;;;;;;35.20;8.75;;;8.70;99.90;;;;;;5020250;27;90163;-34
2022/12/24 07:35:44;;;;;;;33.85;7.32;;;8.70;99.90;;;;;;5018666;28;89434;-35
2022/12/24 07:38:09;;;;;;;32.63;9.05;;;8.60;99.90;;;;;;5018941;28;89852;-33
2022/12/24 07:40:35;;;;;;;31.63;9.05;;;8.60;99.90;;;;;;5019415;27;88961;-33
2022/12/24 07:43:01;;;;;;;32.10;9.07;;;8.60;99.90;;;;;;5020244;27;88832;-34
2022/12/24 07:45:26;;;;;;;33.78;8.50;;;8.50;99.90;;;;;;5019610;28;89343;-32
2022/12/24 07:47:52;;;;;;;23.75;7.85;;;8.50;99.90;;;;;;5020504;28;89585;-35
2022/12/24 07:50:17;;;;;;;28.00;8.25;;;8.50;99.90;;;;;;5020417;28;90020;-34
2022/12/24 07:52:43;;;;;;;27.17;7.35;;;8.60;99.90;;;;;;5019548;28;90217;-34
2022/12/24 07:55:09;;;;;;;27.83;9.45;;;8.50;99.90;;;;;;5020357;28;89444;-33
2022/12/24 07:57:34;;;;;;;31.42;9.40;;;8.50;99.90;;;;;;5018677;28;89533;-34
2022/12/24 08:00:00;;;;;;;40.63;8.93;;;8.60;99.90;;;;;;5019729;28;89318;-35
2022/12/24 08:02:26;;;;;;;29.45;9.02;;;8.50;99.90;;;;;;5030013;28;90325;-37
2022/12/24 08:04:51;;;;;;;34.15;8.15;;;8.50;99.90;;;;;;5031650;28;88921;-33
2022/12/24 08:07:17;;;;;;;24.95;7.93;;;8.50;99.90;;;;;;5030674;28;89611;-34
2022/12/24 08:09:44;;;;;;;31.40;8.30;;;8.60;99.90;;;;;;5031008;28;89144;-34
2022/12/24 08:12:10;;;;;;;36.23;7.93;;;8.60;99.90;;;;;;5033265;27;88743;-32
2022/12/24 08:14:36;;;;;;;37.03;8.20;;;8.60;99.90;;;;;;5031181;27;90465;-32
2022/12/24 08:17:02;;;;;;;34.03;8.50;;;8.60;99.90;;;;;;5032469;28;89105;-33
2022/12/24 08:19:27;;;;;;;40.25;9.23;;;8.60;99.90;;;;;;5032363;28;87983;-33
2022/12/24 08:21:53;;;;;;;37.13;9.32;;;8.60;99.90;;;;;;5032257;28;88938;-33
2022/12/24 08:24:18;;;;;;;32.65;8.80;;;8.60;99.90;;;;;;5029687;28;90052;-35
2022/12/24 08:26:44;;;;;;;35.58;9.48;;;8.60;99.90;;;;;;5031729;28;89503;-33
2022/12/24 08:29:10;;;;;;;32.20;8.88;;;8.60;99.90;;;;;;5031149;28;87984;-32
2022/12/24 08:31:36;;;;;;;37.90;9.75;;;8.60;99.90;;;;;;5028566;28;90253;-33
2022/12/24 08:34:03;;;;;;;29.95;8.85;;;8.60;99.90;;;;;;5028167;28;88497;-33
2022/12/24 08:36:28;;;;;;;33.15;7.93;;;8.60;99.90;;;;;;5030933;27;89415;-32
2022/12/24 08:38:54;;;;;;;25.17;8.52;;;8.60;99.90;;;;;;5030878;28;88317;-31
2022/12/24 08:41:20;;;;;;;25.27;7.88;;;8.60;99.90;;;;;;5032193;27;90300;-33
2022/12/24 08:43:45;;;;;;;34.25;9.80;;;8.70;99.90;;;;;;5028677;28;89649;-32
2022/12/24 08:46:11;;;;;;;33.67;9.68;;;8.70;99.90;;;;;;5030792;28;89721;-34
2022/12/24 08:48:36;;;;;;;35.55;10.18;;;8.70;99.90;;;;;;5032005;28;87842;-32
2022/12/24 08:51:09;;;;;;;26.70;9.27;;;8.80;99.90;;;;;;5030190;28;90155;-32
2022/12/24 08:53:36;;;;;;;32.30;9.18;;;8.80;99.90;;;;;;5028235;27;89257;-32
2022/12/24 08:56:07;;;;;;;26.23;7.93;;;8.80;99.90;;;;;;5029694;27;89456;-32
2022/12/24 08:58:33;;;;;;;27.60;7.63;;;8.80;99.90;;;;;;5027393;27;88386;-33
2022/12/24 09:00:59;;;;;;;25.08;9.70;;;8.90;99.90;;;;;;5026390;27;90342;-32
2022/12/24 09:03:26;;;;;;;32.95;10.43;;;8.90;99.90;;;;;;5029112;28;89382;-33
2022/12/24 09:05:55;;;;;;;35.47;11.23;;;9.00;99.90;;;;;;5028395;27;89842;-33
2022/12/24 09:08:20;;;;;;;35.53;10.68;;;9.00;99.90;;;;;;5030293;27;88583;-32
2022/12/24 09:10:46;;;;;;;28.15;10.05;;;9.00;99.90;;;;;;5028287;28;89326;-32
2022/12/24 09:13:12;;;;;;;36.13;10.95;;;9.00;99.90;;;;;;5027131;28;89289;-33
2022/12/24 09:15:37;;;;;;;42.47;9.77;;;9.10;99.90;;;;;;5025670;28;89299;-35
2022/12/24 09:18:03;;;;;;;38.72;11.05;;;9.10;99.90;;;;;;5031102;28;87463;-34
2022/12/24 09:20:29;;;;;;;32.80;8.50;;;9.10;99.90;;;;;;5032270;27;90735;-32
2022/12/24 09:22:54;;;;;;;36.60;11.48;;;9.20;99.90;;;;;;5033128;28;89822;-36
2022/12/24 09:25:20;;;;;;;35.10;10.93;;;9.20;99.90;;;;;;5030600;28;88921;-32
2022/12/24 09:27:45;;;;;;;34.88;10.18;;;9.20;99.90;;;;;;5031550;28;87966;-32
2022/12/24 09:30:12;;;;;;;28.92;10.95;;;9.30;99.90;;;;;;5063181;22;91205;-32
2022/12/24 09:32:37;;;;;;;32.47;10.68;;;9.20;99.90;;;;;;5010616;28;89786;-33
2022/12/24 09:35:03;;;;;;;42.45;10.45;;;9.30;99.90;;;;;;5011101;28;89170;-35
2022/12/24 09:37:29;;;;;;;35.58;11.20;;;9.30;99.90;;;;;;5010939;28;88258;-33
2022/12/24 09:39:55;;;;;;;34.55;10.90;;;9.30;99.90;;;;;;5010104;28;89828;-33
2022/12/24 09:42:20;;;;;;;32.85;10.25;;;9.30;99.90;;;;;;5014945;28;89765;-33
2022/12/24 09:44:48;;;;;;;28.95;10.55;;;9.40;99.90;;;;;;5013902;28;89508;-34
2022/12/24 09:47:41;;;;;;;55.72;12.65;;;9.40;99.90;;;;;;5012569;28;88098;-33
2022/12/24 09:50:25;;;;;;;32.40;10.98;;;9.50;99.90;;;;;;5014083;28;88963;-35
2022/12/24 09:52:52;;;;;;;43.50;10.57;;;9.50;99.90;;;;;;5013834;28;90608;-34
2022/12/24 09:55:39;;;;;;;37.35;10.95;;;9.50;99.90;;;;;;5012628;28;91486;-34
2022/12/24 09:58:09;;;;;;;41.80;12.13;;;9.60;99.90;;;;;;5002981;28;88065;-31
2022/12/24 10:00:36;;;;;;;33.50;9.05;;;9.60;99.90;;;;;;5013179;28;90352;-33
2022/12/24 10:03:14;;;;;;;30.98;10.65;;;9.60;99.90;;;;;;5014651;28;89570;-33
2022/12/24 10:05:42;;;;;;;27.15;8.52;;;9.70;99.90;;;;;;5002833;28;90287;-33
2022/12/24 10:08:35;;;;;;;30.20;11.05;;;9.70;99.90;;;;;;5000296;28;88623;-34
2022/12/24 10:11:18;;;;;;;36.42;9.85;;;9.60;99.90;;;;;;4969154;28;90812;-32
2022/12/24 10:14:08;;;;;;;29.98;9.43;;;9.60;99.90;;;;;;5001744;28;90134;-33
2022/12/24 10:17:00;;;;;;;29.15;9.57;;;9.60;99.90;;;;;;4996975;28;89366;-34
2022/12/24 10:19:50;;;;;;;34.10;10.07;;;9.50;99.90;;;;;;4993604;28;89716;-32
2022/12/24 10:22:27;;;;;;;30.33;10.10;;;9.50;99.90;;;;;;4998892;28;89953;-33
2022/12/24 10:25:18;;;;;;;29.05;9.68;;;9.40;99.90;;;;;;4997852;28;89645;-34
2022/12/24 10:27:44;;;;;;;21.17;7.78;;;9.50;99.90;;;;;;4992560;28;89920;-32
2022/12/24 10:30:19;;;;;;;17.23;8.40;;;9.50;99.90;;;;;;4999119;28;89052;-34
2022/12/24 10:32:54;;;;;;;21.55;7.60;;;9.50;99.90;;;;;;4998468;28;90329;-32
2022/12/24 10:35:26;;;;;;;31.27;7.25;;;9.50;99.90;;;;;;4998608;28;88665;-35
2022/12/24 10:37:53;;;;;;;21.00;8.20;;;9.60;99.90;;;;;;5000303;28;89444;-35
2022/12/24 10:40:41;;;;;;;17.73;7.05;;;9.60;99.90;;;;;;4999116;28;89837;-34
2022/12/24 10:43:28;;;;;;;22.15;7.85;;;9.60;99.90;;;;;;4998938;28;89448;-34
2022/12/24 10:46:12;;;;;;;23.55;6.55;;;9.60;99.90;;;;;;4997888;28;89868;-33
2022/12/24 10:48:42;;;;;;;21.70;8.07;;;9.60;99.90;;;;;;4999180;28;90521;-34
2022/12/24 10:51:28;;;;;;;26.85;7.30;;;9.60;99.90;;;;;;4999609;28;89146;-32
2022/12/24 10:53:57;;;;;;;19.27;7.90;;;9.60;99.90;;;;;;4997632;28;90110;-33
2022/12/24 10:56:23;;;;;;;24.15;7.25;;;9.60;99.90;;;;;;4998734;28;88926;-37
2022/12/24 10:58:53;;;;;;;18.63;6.82;;;9.70;99.90;;;;;;4998260;28;89507;-32
2022/12/24 11:01:40;;;;;;;28.50;8.27;;;9.80;99.90;;;;;;4998642;28;87686;-34
2022/12/24 11:04:06;;;;;;;21.17;7.65;;;9.70;99.90;;;;;;4997853;28;90563;-33
2022/12/24 11:06:32;;;;;;;25.88;8.48;;;9.80;99.90;;;;;;4998223;28;89892;-33
2022/12/24 11:09:19;;;;;;;24.77;8.30;;;9.80;99.90;;;;;;4998334;28;90130;-33
2022/12/24 11:11:45;;;;;;;19.37;8.03;;;9.80;99.90;;;;;;4997810;28;89740;-34
2022/12/24 11:14:16;;;;;;;19.63;7.40;;;9.80;99.90;;;;;;4998657;28;89852;-34
2022/12/24 11:16:52;;;;;;;27.33;7.85;;;9.80;99.90;;;;;;4998083;28;90755;-36
2022/12/24 11:19:28;;;;;;;28.95;9.32;;;9.70;99.90;;;;;;4997289;28;89000;-33
2022/12/24 11:22:18;;;;;;;27.48;8.10;;;9.70;99.90;;;;;;4998683;28;88282;-35
2022/12/24 11:24:44;;;;;;;18.33;7.60;;;9.70;99.90;;;;;;4997818;28;90417;-35
2022/12/24 11:27:39;;;;;;;25.63;10.63;;;9.70;99.90;;;;;;4997324;28;89610;-34
2022/12/24 11:30:14;;;;;;;23.67;7.65;;;9.70;99.90;;;;;;4997395;28;89323;-32
2022/12/24 11:32:44;;;;;;;28.45;9.15;;;9.80;99.90;;;;;;4997933;28;89106;-35
2022/12/24 11:35:22;;;;;;;29.20;9.55;;;9.80;99.90;;;;;;4996349;28;90376;-33
2022/12/24 11:38:08;;;;;;;22.35;8.85;;;9.80;99.90;;;;;;4996768;28;90502;-34
2022/12/24 11:40:40;;;;;;;22.20;7.88;;;9.70;99.90;;;;;;4997090;28;90905;-34
2022/12/24 11:43:15;;;;;;;30.63;9.57;;;9.70;99.90;;;;;;4998124;28;88483;-33
2022/12/24 11:45:53;;;;;;;38.67;9.95;;;9.70;99.90;;;;;;4997605;28;90303;-35
2022/12/24 11:48:29;;;;;;;28.27;9.18;;;9.70;99.90;;;;;;4998614;28;90171;-34
2022/12/24 11:50:57;;;;;;;35.95;9.93;;;9.70;99.90;;;;;;4997639;28;89350;-33
2022/12/24 11:53:27;;;;;;;;;;;9.70;99.90;;;;;;4998376;28;89193;-35
2022/12/24 11:55:55;;;;;;;33.05;10.10;;;9.70;99.90;;;;;;4998930;28;90114;-35
2022/12/24 11:58:43;;;;;;;30.15;8.68;;;9.70;99.90;;;;;;4997095;28;89434;-35
2022/12/24 12:01:18;;;;;;;33.88;8.90;;;9.70;99.90;;;;;;4997946;28;89692;-33
2022/12/24 12:04:03;;;;;;;26.40;9.18;;;9.80;99.90;;;;;;4997269;28;89838;-34
2022/12/24 12:06:55;;;;;;;33.35;9.10;;;9.80;99.90;;;;;;4997449;28;90363;-33
2022/12/24 12:09:30;;;;;;;32.05;8.32;;;9.80;99.90;;;;;;4997904;28;89411;-33
2022/12/24 12:12:13;;;;;;;28.40;8.43;;;9.80;99.90;;;;;;4998242;28;90482;-35
2022/12/24 12:14:46;;;;;;;30.08;8.52;;;9.80;99.90;;;;;;4997142;28;89077;-33
2022/12/24 12:17:44;;;;;;;19.88;8.43;;;9.80;99.90;;;;;;4998708;28;90097;-32
2022/12/24 12:20:36;;;;;;;26.15;7.97;;;9.90;99.90;;;;;;4991910;28;89894;-36
2022/12/24 12:23:24;;;;;;;27.27;7.43;;;9.90;99.90;;;;;;4998317;28;89629;-33
2022/12/24 12:25:52;;;;;;;;;;;9.90;99.90;;;;;;4997737;28;88990;-35
2022/12/24 12:28:20;;;;;;;30.75;8.00;;;9.80;99.90;;;;;;4997911;28;90331;-35
2022/12/24 12:30:54;;;;;;;23.90;8.00;;;9.80;99.90;;;;;;4994131;28;89365;-34
2022/12/24 12:33:38;;;;;;;29.27;7.05;;;9.80;99.90;;;;;;4997390;28;89024;-35
2022/12/24 12:36:09;;;;;;;39.13;7.47;;;9.90;99.90;;;;;;4995660;28;88293;-33
2022/12/24 12:38:35;;;;;;;32.03;7.13;;;9.80;99.90;;;;;;4996223;28;90182;-33
2022/12/24 12:41:14;;;;;;;24.45;7.65;;;9.80;99.90;;;;;;4996552;28;89361;-37
2022/12/24 12:43:43;;;;;;;19.83;7.30;;;9.90;99.90;;;;;;4997094;28;89761;-33
2022/12/24 12:46:48;;;;;;;28.17;7.72;;;9.90;99.90;;;;;;4998315;28;88337;-36
2022/12/24 12:49:36;;;;;;;31.67;7.95;;;9.90;99.90;;;;;;4976845;28;90383;-33
2022/12/24 12:52:23;;;;;;;39.10;7.93;;;9.80;99.90;;;;;;4997916;28;90069;-34
2022/12/24 12:55:01;;;;;;;30.45;8.02;;;9.80;99.90;;;;;;4985291;28;90907;-33
2022/12/24 12:57:33;;;;;;;22.42;7.65;;;9.70;99.90;;;;;;4997349;28;89039;-34
2022/12/24 13:00:06;;;;;;;40.78;6.60;;;9.70;99.90;;;;;;4997223;28;89367;-34
2022/12/24 13:02:46;;;;;;;25.73;7.43;;;9.70;99.90;;;;;;5007804;28;88975;-32
2022/12/24 13:05:36;;;;;;;24.70;6.38;;;9.60;99.90;;;;;;5008789;28;89267;-33
2022/12/24 13:08:15;;;;;;;27.10;7.20;;;9.70;99.90;;;;;;5003243;28;88311;-33